createdAt,value
2019-04-30T00:02:27.854Z,71.20
2019-04-30T00:04:57.846Z,67.77
2019-04-30T00:07:28.211Z,72.73
2019-04-30T00:09:58.628Z,63.87
2019-04-30T00:12:30.797Z,70.70
2019-04-30T00:15:01.710Z,79.83
2019-04-30T00:17:35.735Z,80.40
2019-04-30T00:20:06.326Z,68.73
2019-04-30T00:22:39.245Z,66.87
2019-04-30T00:25:09.121Z,70.53
2019-04-30T00:27:39.930Z,83.47
2019-04-30T00:30:10.392Z,62.57
2019-04-30T00:32:43.769Z,58.10
2019-04-30T00:35:16.268Z,55.93
2019-04-30T00:37:47.448Z,55.93
2019-04-30T00:40:21.637Z,57.40
2019-04-30T00:42:50.788Z,55.57
2019-04-30T00:45:21.351Z,54.03
2019-04-30T00:47:51.795Z,65.93
2019-04-30T00:50:22.189Z,58.57
2019-04-30T00:52:52.682Z,57.30
2019-04-30T00:55:24.878Z,57.67
2019-04-30T00:57:55.789Z,59.30
2019-04-30T01:00:29.574Z,61.30
2019-04-30T01:03:17.252Z,57.23
2019-04-30T01:05:48.010Z,53.33
2019-04-30T01:08:21.080Z,57.67
2019-04-30T01:10:50.625Z,53.57
2019-04-30T01:13:20.955Z,55.93
2019-04-30T01:15:52.644Z,56.47
2019-04-30T01:18:27.923Z,60.40
2019-04-30T01:20:55.902Z,53.80
2019-04-30T01:23:26.299Z,61.23
2019-04-30T01:25:58.472Z,55.03
2019-04-30T01:28:29.705Z,48.40
2019-04-30T01:31:02.052Z,56.87
2019-04-30T01:33:34.499Z,54.27
2019-04-30T01:36:09.520Z,63.07
2019-04-30T01:38:40.057Z,53.53
2019-04-30T01:41:09.549Z,58.60
2019-04-30T01:43:40.281Z,59.57
2019-04-30T01:46:13.809Z,63.60
2019-04-30T01:48:43.618Z,55.33
2019-04-30T01:51:18.366Z,51.63
2019-04-30T01:53:48.461Z,55.83
2019-04-30T01:56:39.050Z,59.33
2019-04-30T01:59:14.465Z,65.20
2019-04-30T02:01:45.717Z,65.20
2019-04-30T02:04:16.066Z,54.03
2019-04-30T02:06:46.430Z,53.30
2019-04-30T02:09:18.858Z,67.07
2019-04-30T02:11:50.584Z,59.13
2019-04-30T02:14:20.981Z,55.03
2019-04-30T02:16:51.358Z,56.53
2019-04-30T02:19:21.759Z,57.10
2019-04-30T02:21:52.161Z,59.33
2019-04-30T02:24:22.568Z,58.27
2019-04-30T02:26:53.051Z,58.83
2019-04-30T02:29:23.797Z,58.23
2019-04-30T02:31:54.161Z,53.43
2019-04-30T02:34:34.883Z,62.27
2019-04-30T02:37:10.008Z,53.37
2019-04-30T02:39:40.486Z,56.87
2019-04-30T02:42:13.283Z,65.27
2019-04-30T02:44:45.773Z,53.70
2019-04-30T02:47:20.290Z,56.17
2019-04-30T02:50:10.228Z,59.80
2019-04-30T02:52:29.291Z,59.17
2019-04-30T02:55:02.933Z,51.23
2019-04-30T02:57:33.603Z,49.47
2019-04-30T03:00:20.489Z,49.00
2019-04-30T03:02:50.488Z,56.60
2019-04-30T03:05:22.713Z,52.10
2019-04-30T03:07:53.507Z,49.63
2019-04-30T03:10:24.163Z,50.43
2019-04-30T03:12:54.755Z,46.70
2019-04-30T03:15:25.105Z,47.43
2019-04-30T03:18:12.658Z,50.03
2019-04-30T03:21:00.337Z,50.23
2019-04-30T03:23:30.740Z,50.13
2019-04-30T03:26:01.072Z,51.33
2019-04-30T03:28:31.613Z,58.60
2019-04-30T03:31:04.411Z,56.17
2019-04-30T03:33:33.931Z,51.53
2019-04-30T03:36:04.324Z,59.80
2019-04-30T03:38:34.680Z,56.70
2019-04-30T03:41:05.106Z,50.53
2019-04-30T03:43:35.513Z,50.17
2019-04-30T03:46:06.114Z,49.20
2019-04-30T03:48:39.386Z,49.10
2019-04-30T03:51:10.631Z,55.80
2019-04-30T03:53:42.725Z,54.03
2019-04-30T03:56:12.760Z,53.93
2019-04-30T03:58:43.179Z,58.77
2019-04-30T04:01:29.346Z,45.23
2019-04-30T04:04:21.043Z,44.87
2019-04-30T04:07:00.155Z,58.67
2019-04-30T04:09:36.608Z,44.77
2019-04-30T04:12:23.357Z,48.90
2019-04-30T04:14:54.380Z,42.57
2019-04-30T04:17:24.757Z,47.70
2019-04-30T04:19:55.416Z,52.60
2019-04-30T04:22:25.843Z,49.50
2019-04-30T04:24:56.346Z,45.20
2019-04-30T04:27:29.791Z,43.97
2019-04-30T04:30:01.204Z,46.47
2019-04-30T04:32:32.405Z,44.33
2019-04-30T04:35:02.836Z,42.40
2019-04-30T04:37:33.229Z,37.30
2019-04-30T04:40:04.002Z,45.07
2019-04-30T04:42:36.314Z,38.63
2019-04-30T04:45:09.838Z,47.77
2019-04-30T04:47:40.255Z,47.17
2019-04-30T04:50:11.237Z,40.23
2019-04-30T04:52:41.838Z,42.50
2019-04-30T04:55:12.553Z,39.73
2019-04-30T04:57:43.249Z,43.93
2019-04-30T05:00:14.316Z,42.57
2019-04-30T05:03:12.617Z,43.40
2019-04-30T05:05:43.004Z,45.00
2019-04-30T05:08:13.383Z,49.67
2019-04-30T05:10:43.868Z,46.87
2019-04-30T05:13:14.209Z,43.67
2019-04-30T05:15:44.681Z,48.57
2019-04-30T05:18:15.090Z,47.57
2019-04-30T05:20:45.633Z,48.33
2019-04-30T05:23:16.017Z,55.60
2019-04-30T05:25:46.392Z,43.63
2019-04-30T05:28:18.999Z,57.57
2019-04-30T05:30:49.539Z,47.57
2019-04-30T05:33:21.289Z,52.03
2019-04-30T05:35:51.727Z,53.33
2019-04-30T05:38:22.150Z,53.27
2019-04-30T05:40:52.569Z,61.23
2019-04-30T05:43:23.023Z,65.33
2019-04-30T05:45:54.422Z,67.20
2019-04-30T05:48:24.763Z,55.70
2019-04-30T05:50:56.269Z,50.67
2019-04-30T05:53:28.596Z,50.87
2019-04-30T05:56:00.047Z,52.53
2019-04-30T05:58:30.447Z,50.60
2019-04-30T06:01:00.842Z,44.03
2019-04-30T06:03:33.328Z,42.63
2019-04-30T06:06:03.501Z,40.90
2019-04-30T06:08:40.935Z,43.33
2019-04-30T06:11:19.260Z,42.43
2019-04-30T06:14:08.676Z,41.87
2019-04-30T06:16:39.437Z,41.77
2019-04-30T06:19:09.863Z,35.33
2019-04-30T06:21:40.519Z,29.40
2019-04-30T06:24:10.955Z,34.90
2019-04-30T06:26:41.327Z,32.05
2019-04-30T06:29:11.719Z,28.10
2019-04-30T06:31:43.294Z,28.45
2019-04-30T06:34:13.781Z,36.08
2019-04-30T06:36:50.968Z,41.33
2019-04-30T06:39:18.604Z,35.38
2019-04-30T06:41:49.390Z,41.18
2019-04-30T06:44:20.586Z,51.58
2019-04-30T06:46:51.793Z,39.73
2019-04-30T06:49:23.231Z,43.02
2019-04-30T06:51:53.749Z,29.18
2019-04-30T06:54:24.125Z,53.92
2019-04-30T06:56:54.924Z,46.73
2019-04-30T06:59:25.277Z,36.95
2019-04-30T07:01:56.113Z,27.22
2019-04-30T07:04:26.475Z,37.00
2019-04-30T07:06:58.887Z,35.43
2019-04-30T07:09:59.221Z,28.92
2019-04-30T07:12:58.962Z,36.08
2019-04-30T07:15:30.535Z,32.28
2019-04-30T07:18:03.161Z,25.72
2019-04-30T07:20:35.576Z,23.60
2019-04-30T07:23:06.110Z,26.90
2019-04-30T07:25:38.993Z,34.35
2019-04-30T07:28:09.123Z,32.63
2019-04-30T07:30:39.799Z,29.45
2019-04-30T07:33:10.152Z,34.75
2019-04-30T07:35:40.708Z,22.60
2019-04-30T07:38:11.075Z,59.30
2019-04-30T07:40:41.453Z,31.23
2019-04-30T07:43:11.841Z,30.27
2019-04-30T07:45:42.405Z,32.00
2019-04-30T07:48:13.031Z,19.42
2019-04-30T07:50:44.201Z,23.80
2019-04-30T07:53:14.948Z,23.45
2019-04-30T07:55:45.750Z,22.87
2019-04-30T07:58:16.219Z,18.40
2019-04-30T08:00:46.648Z,20.88
2019-04-30T08:03:31.063Z,21.00
2019-04-30T08:06:02.358Z,21.35
2019-04-30T08:08:33.410Z,16.95
2019-04-30T08:11:03.903Z,22.98
2019-04-30T08:13:34.675Z,19.48
2019-04-30T08:16:05.603Z,15.63
2019-04-30T08:18:35.975Z,22.55
2019-04-30T08:21:06.362Z,22.65
2019-04-30T08:23:37.749Z,18.30
2019-04-30T08:26:08.929Z,17.82
2019-04-30T08:28:39.523Z,17.80
2019-04-30T08:31:10.035Z,19.82
2019-04-30T08:33:40.427Z,17.00
2019-04-30T08:36:10.791Z,17.15
2019-04-30T08:38:41.195Z,15.10
2019-04-30T08:41:11.637Z,19.92
2019-04-30T08:43:41.993Z,21.15
2019-04-30T08:46:12.378Z,14.30
2019-04-30T08:48:50.531Z,27.98
2019-04-30T08:51:14.991Z,23.00
2019-04-30T08:53:48.475Z,24.92
2019-04-30T08:56:21.654Z,19.23
2019-04-30T08:58:50.781Z,31.85
2019-04-30T09:01:21.139Z,19.85
2019-04-30T09:03:51.804Z,18.55
2019-04-30T09:06:28.717Z,22.27
2019-04-30T09:09:02.474Z,18.27
2019-04-30T09:11:49.087Z,20.77
2019-04-30T09:14:08.418Z,20.10
2019-04-30T09:16:39.331Z,21.23
2019-04-30T09:19:11.598Z,19.73
2019-04-30T09:21:42.239Z,18.98
2019-04-30T09:24:12.621Z,23.07
2019-04-30T09:26:42.949Z,19.50
2019-04-30T09:29:13.350Z,22.98
2019-04-30T09:31:44.823Z,19.32
2019-04-30T09:34:18.025Z,18.60
2019-04-30T09:36:48.892Z,18.32
2019-04-30T09:39:19.911Z,19.48
2019-04-30T09:41:51.255Z,19.90
2019-04-30T09:44:21.611Z,16.45
2019-04-30T09:46:51.979Z,21.27
2019-04-30T09:49:23.558Z,15.10
2019-04-30T09:51:53.961Z,20.60
2019-04-30T09:54:24.476Z,18.15
2019-04-30T09:56:55.242Z,20.05
2019-04-30T09:59:28.883Z,18.32
2019-04-30T10:01:58.796Z,14.25
2019-04-30T10:04:30.270Z,15.65
2019-04-30T10:07:01.387Z,21.65
2019-04-30T10:09:31.904Z,14.13
2019-04-30T10:12:10.741Z,15.63
2019-04-30T10:14:41.158Z,20.72
2019-04-30T10:17:24.811Z,12.30
2019-04-30T10:19:55.717Z,16.80
2019-04-30T10:22:26.086Z,16.10
2019-04-30T10:24:56.478Z,14.40
2019-04-30T10:27:29.202Z,14.98
2019-04-30T10:29:59.624Z,22.70
2019-04-30T10:32:30.149Z,14.45
2019-04-30T10:35:00.849Z,19.48
2019-04-30T10:37:31.225Z,18.82
2019-04-30T10:40:01.576Z,22.48
2019-04-30T10:42:34.717Z,16.25
2019-04-30T10:45:09.797Z,17.52
2019-04-30T10:47:41.417Z,16.40
2019-04-30T10:50:12.023Z,14.00
2019-04-30T10:52:42.606Z,17.52
2019-04-30T10:55:13.337Z,14.20
2019-04-30T10:57:43.808Z,18.25
2019-04-30T11:00:15.191Z,14.53
2019-04-30T11:02:45.543Z,19.02
2019-04-30T11:05:16.169Z,15.85
2019-04-30T11:07:46.728Z,19.67
2019-04-30T11:10:18.903Z,12.35
2019-04-30T11:12:49.985Z,15.32
2019-04-30T11:15:20.876Z,12.70
2019-04-30T11:17:51.356Z,17.30
2019-04-30T11:20:22.417Z,12.90
2019-04-30T11:22:54.687Z,11.45
2019-04-30T11:25:25.964Z,15.72
2019-04-30T11:27:57.131Z,12.93
2019-04-30T11:30:29.590Z,14.80
2019-04-30T11:33:00.084Z,18.27
2019-04-30T11:35:30.615Z,13.80
2019-04-30T11:38:01.069Z,12.30
2019-04-30T11:40:36.918Z,18.35
2019-04-30T11:43:06.295Z,17.52
2019-04-30T11:46:19.845Z,22.73
2019-04-30T11:48:50.694Z,20.30
2019-04-30T11:51:21.119Z,15.68
2019-04-30T11:53:52.058Z,13.22
2019-04-30T11:56:22.397Z,15.72
2019-04-30T11:58:53.925Z,11.83
2019-04-30T12:01:25.827Z,17.12
2019-04-30T12:03:56.182Z,18.20
2019-04-30T12:06:28.423Z,20.30
2019-04-30T12:09:32.638Z,11.08
2019-04-30T12:12:03.539Z,11.05
2019-04-30T12:14:33.898Z,13.70
2019-04-30T12:17:04.601Z,14.83
2019-04-30T12:19:35.238Z,13.28
2019-04-30T12:22:05.726Z,12.05
2019-04-30T12:24:36.197Z,14.23
2019-04-30T12:27:06.561Z,10.95
2019-04-30T12:29:36.931Z,12.10
2019-04-30T12:32:07.448Z,12.13
2019-04-30T12:34:37.828Z,12.03
2019-04-30T12:37:10.582Z,15.78
2019-04-30T12:39:41.758Z,13.75
2019-04-30T12:42:12.134Z,13.18
2019-04-30T12:44:42.542Z,13.00
2019-04-30T12:47:12.956Z,14.25
2019-04-30T12:50:01.018Z,8.18
2019-04-30T12:52:35.530Z,15.85
2019-04-30T12:55:29.354Z,11.00
2019-04-30T12:58:01.566Z,14.83
2019-04-30T13:00:32.422Z,27.98
2019-04-30T13:03:02.827Z,18.40
2019-04-30T13:05:33.380Z,14.73
2019-04-30T13:08:09.570Z,14.90
2019-04-30T13:10:38.342Z,13.05
2019-04-30T13:13:09.951Z,16.57
2019-04-30T13:15:40.671Z,15.05
2019-04-30T13:18:11.196Z,20.80
2019-04-30T13:20:41.684Z,19.92
2019-04-30T13:23:12.334Z,18.85
2019-04-30T13:25:51.356Z,14.15
2019-04-30T13:28:19.176Z,21.23
2019-04-30T13:30:50.145Z,17.73
2019-04-30T13:33:41.548Z,14.33
2019-04-30T13:36:12.523Z,21.20
2019-04-30T13:38:52.361Z,17.65
2019-04-30T13:41:42.983Z,15.25
2019-04-30T13:44:15.494Z,18.27
2019-04-30T13:46:45.992Z,12.07
2019-04-30T13:49:16.386Z,11.53
2019-04-30T13:51:46.985Z,10.58
2019-04-30T13:54:17.406Z,19.62
2019-04-30T13:56:49.303Z,12.35
2019-04-30T13:59:19.904Z,15.28
2019-04-30T14:01:50.324Z,12.58
2019-04-30T14:04:40.722Z,18.37
2019-04-30T14:07:35.312Z,14.30
2019-04-30T14:10:06.313Z,19.12
2019-04-30T14:12:40.507Z,13.85
2019-04-30T14:15:11.394Z,20.75
2019-04-30T14:17:41.776Z,14.35
2019-04-30T14:20:13.382Z,15.80
2019-04-30T14:22:43.712Z,20.45
2019-04-30T14:25:14.480Z,13.10
2019-04-30T14:27:52.127Z,15.30
2019-04-30T14:30:19.250Z,15.70
2019-04-30T14:32:50.769Z,16.57
2019-04-30T14:35:26.071Z,15.03
2019-04-30T14:37:56.500Z,15.28
2019-04-30T14:40:29.195Z,17.48
2019-04-30T14:43:37.705Z,12.95
2019-04-30T14:46:33.622Z,11.12
2019-04-30T14:49:24.497Z,12.88
2019-04-30T14:51:55.442Z,10.90
2019-04-30T14:54:39.002Z,18.32
2019-04-30T14:57:34.214Z,19.95
2019-04-30T15:00:39.412Z,15.03
2019-04-30T15:03:11.858Z,14.87
2019-04-30T15:05:48.465Z,15.93
2019-04-30T15:08:14.201Z,14.00
2019-04-30T15:10:44.610Z,20.02
2019-04-30T15:13:14.945Z,13.90
2019-04-30T15:15:45.840Z,16.40
2019-04-30T15:18:19.205Z,15.78
2019-04-30T15:20:49.804Z,16.73
2019-04-30T15:23:32.664Z,14.30
2019-04-30T15:26:03.104Z,15.93
2019-04-30T15:28:33.474Z,11.60
2019-04-30T15:31:04.394Z,9.60
2019-04-30T15:34:02.922Z,12.88
2019-04-30T15:36:31.570Z,11.90
2019-04-30T15:39:13.520Z,12.28
2019-04-30T15:41:44.114Z,10.18
2019-04-30T15:44:14.919Z,16.97
2019-04-30T15:46:45.344Z,15.78
2019-04-30T15:49:15.780Z,19.77
2019-04-30T15:51:46.478Z,16.87
2019-04-30T15:54:18.997Z,19.60
2019-04-30T15:56:49.257Z,16.65
2019-04-30T15:59:39.467Z,9.30
2019-04-30T16:02:32.136Z,15.55
2019-04-30T16:05:17.236Z,15.15
2019-04-30T16:08:06.666Z,19.35
2019-04-30T16:10:52.264Z,13.80
2019-04-30T16:13:25.075Z,15.43
2019-04-30T16:15:55.467Z,17.67
2019-04-30T16:18:30.407Z,19.32
2019-04-30T16:21:01.214Z,14.00
2019-04-30T16:23:31.642Z,23.83
2019-04-30T16:26:02.048Z,14.95
2019-04-30T16:28:32.538Z,10.48
2019-04-30T16:31:03.398Z,13.05
2019-04-30T16:33:33.878Z,17.85
2019-04-30T16:36:04.934Z,14.13
2019-04-30T16:38:35.580Z,9.33
2019-04-30T16:41:06.360Z,21.25
2019-04-30T16:43:38.851Z,9.90
2019-04-30T16:46:09.399Z,15.40
2019-04-30T16:48:41.072Z,13.48
2019-04-30T16:51:11.456Z,16.82
2019-04-30T16:53:41.819Z,14.35
2019-04-30T16:56:12.182Z,12.85
2019-04-30T16:59:02.280Z,16.00
2019-04-30T17:01:34.210Z,35.03
2019-04-30T17:04:15.996Z,16.60
2019-04-30T17:06:51.948Z,23.32
2019-04-30T17:09:29.960Z,16.30
2019-04-30T17:12:19.765Z,13.53
2019-04-30T17:15:09.426Z,22.22
2019-04-30T17:17:40.932Z,12.15
2019-04-30T17:20:12.806Z,12.28
2019-04-30T17:22:43.219Z,20.77
2019-04-30T17:25:13.693Z,22.58
2019-04-30T17:27:44.034Z,15.98
2019-04-30T17:30:14.936Z,22.55
2019-04-30T17:32:45.350Z,17.00
2019-04-30T17:35:15.824Z,17.20
2019-04-30T17:37:46.256Z,15.55
2019-04-30T17:40:19.115Z,18.77
2019-04-30T17:42:49.396Z,14.45
2019-04-30T17:45:20.463Z,16.82
2019-04-30T17:47:50.933Z,17.15
2019-04-30T17:50:22.417Z,15.63
2019-04-30T17:52:54.216Z,13.65
2019-04-30T17:55:24.684Z,14.85
2019-04-30T17:57:55.106Z,15.08
2019-04-30T18:00:26.656Z,18.82
2019-04-30T18:02:57.012Z,12.33
2019-04-30T18:05:29.158Z,14.65
2019-04-30T18:08:01.164Z,21.05
2019-04-30T18:10:33.054Z,14.80
2019-04-30T18:13:03.442Z,14.40
2019-04-30T18:15:33.822Z,12.67
2019-04-30T18:18:13.518Z,15.97
2019-04-30T18:21:03.073Z,21.33
2019-04-30T18:23:58.644Z,16.47
2019-04-30T18:26:29.338Z,22.90
2019-04-30T18:28:59.756Z,18.70
2019-04-30T18:31:30.616Z,17.40
2019-04-30T18:34:01.092Z,19.60
2019-04-30T18:36:31.514Z,14.97
2019-04-30T18:39:01.898Z,22.37
2019-04-30T18:41:33.973Z,19.30
2019-04-30T18:44:04.790Z,22.77
2019-04-30T18:46:35.684Z,22.17
2019-04-30T18:49:07.968Z,17.03
2019-04-30T18:51:42.069Z,17.77
2019-04-30T18:54:11.045Z,15.03
2019-04-30T18:56:41.514Z,19.80
2019-04-30T18:59:13.080Z,20.30
2019-04-30T19:01:43.892Z,17.30
2019-04-30T19:04:14.330Z,18.67
2019-04-30T19:06:44.823Z,21.87
2019-04-30T19:09:48.947Z,16.90
2019-04-30T19:12:43.966Z,15.40
2019-04-30T19:15:59.194Z,16.50
2019-04-30T19:18:18.283Z,17.73
2019-04-30T19:20:51.603Z,18.83
2019-04-30T19:23:22.050Z,19.93
2019-04-30T19:25:52.426Z,21.27
2019-04-30T19:28:23.109Z,24.63
2019-04-30T19:30:57.970Z,29.20
2019-04-30T19:33:25.623Z,22.97
2019-04-30T19:35:58.478Z,24.60
2019-04-30T19:38:28.180Z,17.63
2019-04-30T19:40:58.934Z,30.60
2019-04-30T19:43:29.593Z,17.83
2019-04-30T19:46:00.665Z,25.37
2019-04-30T19:48:31.218Z,21.40
2019-04-30T19:51:02.643Z,20.10
2019-04-30T19:53:33.452Z,26.53
2019-04-30T19:56:04.469Z,29.83
2019-04-30T19:58:52.352Z,28.20
2019-04-30T20:01:09.550Z,19.33
2019-04-30T20:03:40.698Z,18.00
2019-04-30T20:06:11.608Z,31.50
2019-04-30T20:08:41.981Z,21.50
2019-04-30T20:11:12.623Z,25.73
2019-04-30T20:13:43.088Z,20.50
2019-04-30T20:16:13.528Z,24.17
2019-04-30T20:18:44.307Z,23.97
2019-04-30T20:21:26.194Z,21.70
2019-04-30T20:23:51.117Z,23.33
2019-04-30T20:26:21.525Z,26.83
2019-04-30T20:28:51.908Z,29.57
2019-04-30T20:31:22.288Z,27.20
2019-04-30T20:33:53.782Z,26.37
2019-04-30T20:36:24.181Z,29.37
2019-04-30T20:39:19.475Z,27.03
2019-04-30T20:41:54.103Z,31.07
2019-04-30T20:44:24.468Z,36.57
2019-04-30T20:46:54.879Z,60.37
2019-04-30T20:49:25.273Z,30.90
2019-04-30T20:51:56.133Z,28.17
2019-04-30T20:54:28.951Z,33.23
2019-04-30T20:56:59.097Z,35.33
2019-04-30T20:59:29.737Z,37.67
2019-04-30T21:02:00.152Z,27.53
2019-04-30T21:04:30.505Z,32.57
2019-04-30T21:07:01.039Z,27.37
2019-04-30T21:09:31.343Z,25.87
2019-04-30T21:12:01.752Z,29.13
2019-04-30T21:14:33.823Z,24.17
2019-04-30T21:17:04.209Z,31.10
2019-04-30T21:19:34.569Z,88.33
2019-04-30T21:22:04.989Z,82.43
2019-04-30T21:24:35.295Z,32.80
2019-04-30T21:27:05.711Z,32.50
2019-04-30T21:29:36.107Z,32.10
2019-04-30T21:32:25.117Z,36.27
2019-04-30T21:35:17.589Z,27.53
2019-04-30T21:37:48.160Z,33.80
2019-04-30T21:40:19.591Z,38.07
2019-04-30T21:42:50.374Z,29.80
2019-04-30T21:45:20.759Z,33.97
2019-04-30T21:47:56.531Z,38.07
2019-04-30T21:50:23.385Z,30.43
2019-04-30T21:52:54.877Z,34.27
2019-04-30T21:55:25.239Z,44.67
2019-04-30T21:57:55.586Z,34.47
2019-04-30T22:01:00.559Z,32.07
2019-04-30T22:03:32.235Z,34.97
2019-04-30T22:06:02.627Z,33.93
2019-04-30T22:08:33.012Z,37.80
2019-04-30T22:11:03.378Z,37.50
2019-04-30T22:13:34.963Z,36.77
2019-04-30T22:16:05.391Z,42.57
2019-04-30T22:18:35.751Z,65.70
2019-04-30T22:21:07.464Z,35.67
2019-04-30T22:23:37.861Z,39.20
2019-04-30T22:26:08.165Z,39.30
2019-04-30T22:28:39.108Z,34.37
2019-04-30T22:31:10.492Z,45.67
2019-04-30T22:33:40.867Z,30.80
2019-04-30T22:36:38.995Z,36.67
2019-04-30T22:39:29.877Z,39.30
2019-04-30T22:42:16.148Z,38.57
2019-04-30T22:44:46.521Z,41.07
2019-04-30T22:47:16.873Z,42.27
2019-04-30T22:49:47.297Z,37.77
2019-04-30T22:52:17.678Z,35.30
2019-04-30T22:54:48.134Z,39.27
2019-04-30T22:57:18.534Z,36.90
2019-04-30T22:59:50.104Z,42.10
2019-04-30T23:02:28.326Z,37.40
2019-04-30T23:04:59.141Z,37.13
2019-04-30T23:07:29.743Z,41.63
2019-04-30T23:10:00.124Z,40.40
2019-04-30T23:12:30.475Z,60.47
2019-04-30T23:15:01.015Z,34.87
2019-04-30T23:17:31.377Z,38.93
2019-04-30T23:20:01.800Z,43.17
2019-04-30T23:22:32.194Z,39.37
2019-04-30T23:25:02.629Z,36.73
2019-04-30T23:27:32.994Z,48.40
2019-04-30T23:30:03.953Z,45.67
2019-04-30T23:32:34.825Z,33.83
2019-04-30T23:35:05.734Z,42.17
2019-04-30T23:37:36.146Z,41.03
2019-04-30T23:40:31.368Z,38.93
2019-04-30T23:43:01.757Z,52.83
2019-04-30T23:45:32.261Z,44.23
2019-04-30T23:48:02.616Z,47.40
2019-04-30T23:50:33.049Z,40.13
2019-04-30T23:53:03.464Z,40.60
2019-04-30T23:55:34.143Z,32.80
2019-04-30T23:58:04.528Z,35.63
